Panorama WebCam JadeWeserAirport, sowie die WebCams Emden - Wangerooge - Leer-Papenburg - Baltrum - Juist

Die Wetterinformationen haben nur informativen Charakter und dürfen nicht zum Zwecke der Flugplanung benutzt werden.

METAR EDWI 232350Z AUTO 21006KT CAVOK 07/02 Q1006=
METAR ETNT 232320Z 22012KT 9999 SCT040 07/04 Q1006 BLU+
METAR ETMN 232320Z 21013KT 9999 FEW040 07/04 Q1006 BLU+
 

Die WebCams auf Helgoland finden sie hier. WebCams Helgoland